• Join FlightAware (Why Join?)
  • Login
  • US Flag 
05:29PM EDT


 

Airport Tracker/Info


-or-


 

Live Flight TrackerFlight Track Log ✈ FFT241 ✈ 08-May-2013 ✈ KDEN - KSBA

Flight Track Log - Related Links

Times and Time Zones

All times are in EDT time to prevent confusion due to time zone crossing. See the FFT241 flight status page for this flight to view local times or setup timezone preferences in your user account.

Time Position Orientation Groundspeed Altitude Reporting Facility
EDT Latitude Longitude Course Direction KTS MPH feet Rate Location/Type
03:01PM 39.8167 -104.8667 241° Southwest 284 327 8,800  Level Denver TRACON
03:02PM 39.8125 -104.9308 265° West 288 331 10,500 2,700 Climbing Denver Center
03:03PM 39.7969 -105.0494 260° West 327 376 13,100 2,640 Climbing Denver Center
03:04PM 39.7808 -105.1814 261° West 343 395 16,000 2,640 Climbing Denver Center
03:05PM 39.7631 -105.3128 260° West 367 422 18,600 2,460 Climbing Denver Center
03:06PM 39.6029 -105.4378 241° Southwest  Level FlightAware Approximate
03:06PM 39.7342 -105.4544 255° West 385 443 21,100  Level Denver Center
03:07PM 39.6864 -105.5806 244° Southwest 395 455 22,900 1,800 Climbing Denver Center
03:08PM 39.6339 -105.7156 243° Southwest 421 484 24,800 1,560 Climbing Denver Center
03:09PM 39.5853 -105.8450 244° Southwest 424 488 26,200 1,500 Climbing Denver Center
03:10PM 39.5342 -105.9892 245° Southwest 436 502 28,300 1,920 Climbing Denver Center
03:11PM 39.4672 -106.1967 247° West 445 512 30,600 1,980 Climbing Denver Center
03:12PM 39.4200 -106.3447 248° West 444 511 32,500 1,740 Climbing Denver Center
03:13PM 39.3731 -106.4828 246° West 441 507 34,200 1,500 Climbing Denver Center
03:14PM 39.3211 -106.6433 247° West 434 499 35,900 780 Climbing Denver Center
03:15PM 39.2686 -106.7994 247° West 425 489 36,000  Climbing Denver Center
03:17PM 39.2094 -106.9797 247° West 425 489 36,000  Level Denver Center
03:18PM 39.1558 -107.1408 247° West 435 501 36,000  Level Denver Center
03:19PM 39.1097 -107.2756 246° West 432 497 36,000  Level Denver Center
03:20PM 39.0636 -107.4117 246° West 432 497 36,000  Level Denver Center
03:21PM 39.0106 -107.5686 247° West 428 493 36,000  Level Denver Center
03:22PM 38.9644 -107.7031 246° West 428 493 36,000  Level Denver Center
03:23PM 38.9117 -107.8583 246° West 425 489 36,000  Level Denver Center
03:24PM 38.8653 -107.9936 246° West 429 494 36,000  Level Denver Center
03:25PM 38.8114 -108.1497 246° West 427 491 36,000  Level Denver Center
03:26PM 38.7569 -108.3053 246° West 428 493 36,000  Level Denver Center
03:27PM 38.7028 -108.4617 246° West 428 493 36,000  Level Denver Center
03:28PM 38.6550 -108.5950 245° Southwest 430 495 36,000  Level Denver Center
03:29PM 38.6006 -108.7506 246° West 429 494 36,000  Level Denver Center
03:30PM 38.5531 -108.8844 246° West 429 494 36,000  Level Denver Center
03:31PM 38.5044 -109.0172 245° Southwest 430 495 36,000  Level Denver Center
03:32PM 38.4483 -109.1753 246° West 434 499 36,000  Level Denver Center
03:33PM 38.4003 -109.3075 245° Southwest 432 497 36,000  Level Denver Center
03:34PM 38.3442 -109.4614 245° Southwest 428 493 36,000  Level Denver Center
03:35PM 38.2967 -109.5925 245° Southwest 424 488 36,000  Level Denver Center
03:36PM 38.2400 -109.7458 245° Southwest 426 490 36,000  Level Denver Center
03:37PM 38.1922 -109.8747 245° Southwest 422 486 36,000  Level Denver Center
03:38PM 38.1442 -110.0033 245° Southwest 421 484 36,000  Level Denver Center
03:39PM 38.0900 -110.1531 245° Southwest 417 480 36,000  Level Denver Center
03:41PM 38.0428 -110.2786 245° Southwest 413 475 36,000  Level Denver Center
03:42PM 37.9942 -110.4097 245° Southwest 410 472 36,000  Level Denver Center
03:43PM 37.9392 -110.5550 244° Southwest 410 472 36,000  Level Denver Center
03:44PM 37.8814 -110.7047 244° Southwest 412 474 36,000  Level Denver Center
03:45PM 37.8333 -110.8353 245° Southwest 411 473 36,000  Level Denver Center
03:46PM 37.7731 -110.9922 244° Southwest 414 476 36,000 360 Level Denver Center
03:47PM 37.7122 -111.1144 238° Southwest 412 474 36,800 780 Climbing Denver Center
03:48PM 37.6750 -111.1900 238° Southwest 415 478 37,400 720 Climbing Salt Lake Center
03:49PM 37.6167 -111.3178 240° Southwest 420 483 38,000 420 Climbing Salt Lake Center
03:49PM 37.5919 -111.3686 238° Southwest 422 486 38,000  Level Denver Center
03:51PM 37.5103 -111.5792 244° Southwest 419 482 38,000  Level Denver Center
03:52PM 37.4586 -111.7128 244° Southwest 424 488 38,000  Level Denver Center
03:53PM 37.4069 -111.8458 244° Southwest 424 488 38,000  Level Denver Center
03:53PM 37.3644 -111.9533 244° Southwest 423 487 38,000  Level Los Angeles Center
03:54PM 37.3125 -112.0858 244° Southwest 423 487 38,000  Level Los Angeles Center
03:55PM 37.2378 -112.2347 238° Southwest 420 483 38,000  Level Los Angeles Center
03:57PM 37.1717 -112.3547 235° Southwest 418 481 38,000  Level Los Angeles Center
03:58PM 37.1064 -112.4756 236° Southwest 416 479 38,000  Level Los Angeles Center
03:59PM 37.0408 -112.5939 235° Southwest 413 475 38,000  Level Los Angeles Center
04:00PM 36.9767 -112.7111 236° Southwest 408 470 38,000  Level Los Angeles Center
04:01PM 36.9128 -112.8275 236° Southwest 406 467 38,000  Level Los Angeles Center
04:02PM 36.8469 -112.9444 235° Southwest 409 471 38,000  Level Los Angeles Center
04:03PM 36.7681 -113.0856 235° Southwest 411 473 38,000  Level Los Angeles Center
04:04PM 36.7036 -113.2033 236° Southwest 411 473 38,000  Level Los Angeles Center
04:05PM 36.6378 -113.3194 235° Southwest 411 473 38,000  Level Los Angeles Center
04:06PM 36.5728 -113.4367 235° Southwest 412 474 38,000  Level Los Angeles Center
04:07PM 36.5069 -113.5525 235° Southwest 410 472 38,000  Level Los Angeles Center
04:09PM 36.3669 -113.8017 235° Southwest 404 465 38,000  Level Los Angeles Center
04:10PM 36.3033 -113.9150 235° Southwest 400 460 38,000  Level Los Angeles Center
04:11PM 36.2383 -114.0278 234° Southwest 401 461 38,000  Level Los Angeles Center
04:12PM 36.1744 -114.1408 235° Southwest 400 460 38,000  Level Los Angeles Center
04:13PM 36.1092 -114.2536 234° Southwest 401 461 38,000  Level Los Angeles Center
04:14PM 36.0319 -114.3881 235° Southwest 399 459 38,000  Level Los Angeles Center
04:15PM 35.9664 -114.4997 234° Southwest 400 460 38,000  Level Los Angeles Center
04:16PM 35.9008 -114.6125 234° Southwest 402 463 38,000  Level Los Angeles Center
04:18PM 35.7700 -114.8381 234° Southwest 403 464 38,000  Level Los Angeles Center
04:19PM 35.7056 -114.9497 235° Southwest 400 460 38,000  Level Los Angeles Center
04:20PM 35.6403 -115.0603 234° Southwest 398 458 38,000  Level Los Angeles Center
04:21PM 35.5603 -115.1936 234° Southwest 400 460 38,000  Level Los Angeles Center
04:22PM 35.4761 -115.2869 222° Southwest 405 466 38,000  Level Los Angeles Center
04:23PM 35.3928 -115.3825 223° Southwest 407 468 38,000  Level Los Angeles Center
04:24PM 35.3103 -115.4769 223° Southwest 404 465 38,000  Level Los Angeles Center
04:26PM 35.2247 -115.5794 224° Southwest 401 461 38,000  Level Los Angeles Center
04:27PM 35.1797 -115.7019 246° West 401 461 38,000  Level Los Angeles Center
04:28PM 35.1489 -115.8317 254° West 397 457 38,000  Level Los Angeles Center
04:29PM 35.1178 -115.9611 254° West 399 459 38,000  Level Los Angeles Center
04:30PM 35.0850 -116.0906 253° West 399 459 38,000  Level Los Angeles Center
04:31PM 35.0467 -116.2453 253° West 398 458 38,000  Level Los Angeles Center
04:32PM 35.0139 -116.3753 253° West 401 461 38,000  Level Los Angeles Center
04:33PM 34.9811 -116.5047 253° West 400 460 38,000  Level Los Angeles Center
04:34PM 34.9486 -116.6356 253° West 404 465 38,000  Level Los Angeles Center
04:35PM 34.9214 -116.7403 252° West 403 464 38,000  Level Los Angeles Center
04:36PM 34.8814 -116.8969 253° West 404 465 38,000  Level Los Angeles Center
04:37PM 34.8414 -117.0539 253° West 405 466 38,000  Level Los Angeles Center
04:38PM 34.8075 -117.1847 253° West 404 465 38,000  Level Los Angeles Center
04:39PM 34.7731 -117.3164 252° West 407 468 38,000 -240 Level Los Angeles Center
04:40PM 34.7392 -117.4486 253° West 407 468 37,600 -840 Descending Los Angeles Center
04:41PM 34.7047 -117.5786 252° West 403 464 36,300 -780 Descending Los Angeles Center
04:42PM 34.6708 -117.7089 252° West 403 464 36,000 -180 Descending Los Angeles Center
04:43PM 34.6347 -117.8411 252° West 405 466 36,000 -300 Level Los Angeles Center
04:44PM 34.6094 -117.9419 253° West 402 463 35,500 -1,560 Descending Los Angeles Center
04:45PM 34.5633 -118.1222 253° West 397 457 32,800 -2,400 Descending Los Angeles Center
04:46PM 34.5308 -118.2414 252° West 387 445 30,500 -2,280 Descending Los Angeles Center
04:47PM 34.4969 -118.3647 252° West 387 445 28,200 -2,280 Descending Los Angeles Center
04:48PM 34.4653 -118.4856 252° West 383 441 25,900 -1,860 Descending Los Angeles Center
04:50PM 34.4128 -118.6362 256° West  Level FlightAware Approximate
04:50PM 34.3933 -118.7456 256° West 373 429 22,600  Level Los Angeles Center
04:51PM 34.3619 -118.8597 252° West 363 418 22,000 -840 Descending Los Angeles Center
04:52PM 34.3492 -118.9778 263° West 359 413 20,900 -1,740 Descending Los Angeles Center
04:53PM 34.3406 -119.0939 265° West 351 404 18,400 -2,880 Descending Los Angeles Center
04:54PM 34.3300 -119.2353 265° West 355 409 14,900 -3,300 Descending Los Angeles Center
04:55PM 34.3269 -119.2942 266° West 346 398 13,400 -2,760 Descending Los Angeles Center
04:56PM 34.3225 -119.3436 264° West 329 379 12,100 -2,460 Descending Los Angeles Center
04:56PM 34.3167 -119.4019 263° West 314 361 10,700 -2,280 Descending Los Angeles Center
04:57PM 34.3075 -119.4433 255° West 306 352 9,800 -2,520 Descending Los Angeles Center
04:57PM 34.2906 -119.5067 252° West 291 335 7,900 -2,520 Descending Los Angeles Center
04:58PM 34.2850 -119.5317 255° West 286 329 7,200 -2,400 Descending Los Angeles Center
04:58PM 34.2772 -119.6103 263° West 280 322 5,300 -2,280 Descending Los Angeles Center
04:59PM 34.2822 -119.6222 297° West 282 325 4,900 -1,680 Descending Los Angeles Center
04:59PM 34.3097 -119.6594 312° West 262 302 4,100 -1,080 Descending Los Angeles Center
05:00PM 34.3375 -119.6944 314° West 253 291 3,800 -960 Descending Los Angeles Center
05:00PM 34.3625 -119.7308 310° West 201 231 2,800 -1,380 Descending Los Angeles Center
05:01PM 34.3742 -119.7411 324° Northwest 220 253 2,400 -1,200 Descending Los Angeles Center
05:01PM 34.3967 -119.7772 307° West 173 199 1,600 -1,200 Descending Los Angeles Center
05:02PM 34.4044 -119.7861 317° Northwest 193 222 1,200 -1,020 Descending Los Angeles Center
05:02PM 34.4192 -119.8011 320° Northwest 151 174 900 -420 Descending Los Angeles Center
05:03PM 34.4358 -119.8167 322° Northwest 169 194 800 -180 Descending Los Angeles Center
05:05PM 34.4167 -119.8333 292° West  Level FlightAware Approximate